Time;durP1;ratioP1;P1;durP2;ratioP2;P2;SDS_P1;SDS_P2;PMS_P1;PMS_P2;Temp;Humidity;BMP_temperature;BMP_pressure;BME280_temperature;BME280_humidity;BME280_pressure;Samples;Min_cycle;Max_cycle;Signal;HPM_P1;HPM_P2
2023/02/12 00:00:32;;;;;;;29.85;13.18;;;6.80;99.90;;;;;;6160803;23;20088;-74
2023/02/12 00:02:58;;;;;;;36.78;14.27;;;6.80;99.90;;;;;;6187410;23;20048;-74
2023/02/12 00:05:24;;;;;;;33.85;14.13;;;6.80;99.90;;;;;;6185680;23;20446;-73
2023/02/12 00:07:49;;;;;;;33.20;13.57;;;6.70;99.90;;;;;;6187475;23;20084;-73
2023/02/12 00:10:15;;;;;;;42.33;14.82;;;6.80;99.90;;;;;;6160302;23;20401;-74
2023/02/12 00:12:41;;;;;;;33.38;14.43;;;6.70;99.90;;;;;;6185441;23;20009;-74
2023/02/12 00:15:07;;;;;;;33.30;15.73;;;6.80;99.90;;;;;;6160722;23;20055;-74
2023/02/12 00:17:33;;;;;;;33.45;16.17;;;6.80;99.90;;;;;;6187354;23;20016;-74
2023/02/12 00:19:59;;;;;;;39.80;15.68;;;6.80;99.90;;;;;;6187319;23;20335;-73
2023/02/12 00:22:24;;;;;;;41.05;16.45;;;6.80;99.90;;;;;;6160857;23;20064;-74
2023/02/12 00:24:50;;;;;;;48.65;15.68;;;6.70;99.90;;;;;;6187341;23;20311;-74
2023/02/12 00:27:16;;;;;;;46.40;16.55;;;6.70;99.90;;;;;;6185287;23;20013;-74
2023/02/12 00:29:41;;;;;;;45.90;17.38;;;6.70;99.90;;;;;;6160558;23;20334;-74
2023/02/12 00:32:07;;;;;;;42.25;16.65;;;6.50;99.90;;;;;;6185403;23;20013;-74
2023/02/12 00:34:33;;;;;;;41.10;16.30;;;6.70;99.90;;;;;;6187215;23;20331;-74
2023/02/12 00:36:58;;;;;;;39.10;16.10;;;6.50;99.90;;;;;;6185399;23;20084;-74
2023/02/12 00:39:24;;;;;;;38.50;17.30;;;6.60;99.90;;;;;;6185378;23;20024;-73
2023/02/12 00:41:50;;;;;;;40.83;17.05;;;6.70;99.90;;;;;;6186996;23;20016;-73
2023/02/12 00:44:15;;;;;;;40.55;16.33;;;6.50;99.90;;;;;;6186983;23;20438;-73
2023/02/12 00:46:41;;;;;;;41.80;17.05;;;6.70;99.90;;;;;;6187137;23;20058;-73
2023/02/12 00:49:06;;;;;;;44.38;15.85;;;6.60;99.90;;;;;;6160270;23;20017;-73
2023/02/12 00:51:32;;;;;;;48.22;17.92;;;6.50;99.90;;;;;;6187032;23;20016;-73
2023/02/12 00:53:58;;;;;;;51.60;19.48;;;6.50;99.90;;;;;;6185334;23;20009;-73
2023/02/12 00:56:23;;;;;;;48.50;19.10;;;6.60;99.90;;;;;;6186977;23;20035;-73
2023/02/12 00:58:49;;;;;;;44.42;17.60;;;6.50;99.90;;;;;;6185945;23;20074;-74
2023/02/12 01:01:15;;;;;;;49.40;18.48;;;6.60;99.90;;;;;;6186742;23;20446;-74
2023/02/12 01:03:41;;;;;;;48.28;18.27;;;6.60;99.90;;;;;;6185858;23;20013;-74
2023/02/12 01:06:06;;;;;;;36.83;16.70;;;6.50;99.90;;;;;;6187398;23;20016;-74
2023/02/12 01:08:32;;;;;;;53.28;18.05;;;6.50;99.90;;;;;;6186518;23;20013;-74
2023/02/12 01:11:03;;;;;;;42.47;18.02;;;6.50;99.90;;;;;;6184838;23;20009;-73
2023/02/12 01:13:30;;;;;;;45.80;18.23;;;6.50;99.90;;;;;;6184842;23;20071;-74
2023/02/12 01:16:02;;;;;;;39.65;17.27;;;6.60;99.90;;;;;;6184718;23;20457;-74
2023/02/12 01:18:27;;;;;;;40.20;17.33;;;6.50;99.90;;;;;;6184779;23;20020;-74
2023/02/12 01:20:53;;;;;;;37.72;17.02;;;6.60;99.90;;;;;;6184697;23;20023;-74
2023/02/12 01:23:19;;;;;;;42.45;18.08;;;6.60;99.90;;;;;;6186761;23;20059;-74
2023/02/12 01:25:44;;;;;;;35.50;17.55;;;6.50;99.90;;;;;;6186640;23;20023;-73
2023/02/12 01:28:10;;;;;;;37.58;17.45;;;6.50;99.90;;;;;;6186266;23;20059;-73
2023/02/12 01:30:36;;;;;;;40.20;17.67;;;6.60;99.90;;;;;;6187206;23;20075;-74
2023/02/12 01:33:01;;;;;;;42.30;18.33;;;6.40;99.90;;;;;;6186682;23;20019;-73
2023/02/12 01:35:27;;;;;;;38.95;19.17;;;6.50;99.90;;;;;;6184701;23;20021;-74
2023/02/12 01:37:53;;;;;;;42.78;18.52;;;6.40;99.90;;;;;;6186818;23;20017;-74
2023/02/12 01:40:18;;;;;;;42.53;18.95;;;6.50;99.90;;;;;;6186666;23;20013;-74
2023/02/12 01:42:44;;;;;;;36.65;17.75;;;6.30;99.90;;;;;;6184788;23;20092;-74
2023/02/12 01:45:13;;;;;;;38.20;19.13;;;6.40;99.90;;;;;;6184672;23;20048;-73
2023/02/12 01:47:43;;;;;;;45.58;19.58;;;6.50;99.90;;;;;;6184608;23;20013;-73
2023/02/12 01:50:13;;;;;;;;;;;6.30;99.90;;;;;;6187062;23;20063;-73
2023/02/12 01:52:42;;;;;;;35.42;17.75;;;6.50;99.90;;;;;;6186627;23;20241;-74
2023/02/12 01:55:10;;;;;;;37.78;17.25;;;6.50;99.90;;;;;;6184521;23;20338;-73
2023/02/12 01:57:42;;;;;;;36.85;17.45;;;6.30;99.90;;;;;;6186341;23;20023;-73
2023/02/12 02:00:13;;;;;;;39.38;19.08;;;6.30;99.90;;;;;;6186488;23;20009;-74
2023/02/12 02:02:39;;;;;;;38.38;19.27;;;6.40;99.90;;;;;;6184821;23;20370;-73
2023/02/12 02:05:06;;;;;;;45.30;19.55;;;6.40;99.90;;;;;;6186492;23;20017;-73
2023/02/12 02:07:32;;;;;;;48.45;20.88;;;6.40;99.90;;;;;;6186048;23;20013;-73
2023/02/12 02:09:58;;;;;;;40.65;20.33;;;6.30;99.90;;;;;;6186524;23;20013;-73
2023/02/12 02:15:13;;;;;;;46.70;20.58;;;6.40;99.90;;;;;;6186479;23;20040;-73
2023/02/12 02:17:57;;;;;;;46.95;21.83;;;6.40;99.90;;;;;;6186367;23;20036;-74
2023/02/12 02:20:47;;;;;;;45.45;20.58;;;6.30;99.90;;;;;;6186452;23;20017;-74
2023/02/12 02:23:37;;;;;;;46.67;22.23;;;6.30;99.90;;;;;;6186112;23;20451;-74
2023/02/12 02:26:05;;;;;;;47.15;21.25;;;6.40;99.90;;;;;;6184692;23;20017;-74
2023/02/12 02:29:03;;;;;;;45.75;21.42;;;6.40;99.90;;;;;;6185933;23;20092;-74
2023/02/12 02:31:39;;;;;;;40.15;20.77;;;6.50;99.90;;;;;;6186518;23;20017;-73
2023/02/12 02:34:15;;;;;;;43.40;19.55;;;6.30;99.90;;;;;;6188266;23;20028;-73
2023/02/12 02:36:51;;;;;;;41.10;20.35;;;6.50;99.90;;;;;;6188554;23;20009;-74
2023/02/12 02:39:43;;;;;;;47.95;20.55;;;6.40;99.90;;;;;;6186911;23;20023;-74
2023/02/12 02:42:37;;;;;;;42.40;20.60;;;6.40;99.90;;;;;;6188468;23;20059;-73
2023/02/12 02:45:06;;;;;;;41.63;18.95;;;6.30;99.90;;;;;;6186748;23;20367;-74
2023/02/12 02:47:38;;;;;;;44.58;22.00;;;6.40;99.90;;;;;;6186057;23;20012;-74
2023/02/12 02:50:14;;;;;;;46.55;19.85;;;6.30;99.90;;;;;;6188189;23;20016;-74
2023/02/12 02:52:47;;;;;;;45.97;20.35;;;6.40;99.90;;;;;;6188179;23;20326;-74
2023/02/12 02:55:17;;;;;;;49.42;19.33;;;6.50;99.90;;;;;;6188137;23;20032;-74
2023/02/12 02:57:57;;;;;;;42.40;20.00;;;6.30;99.90;;;;;;6188794;23;20039;-74
2023/02/12 03:00:38;;;;;;;42.72;19.90;;;6.40;99.90;;;;;;6187874;23;20005;-73
2023/02/12 03:03:29;;;;;;;47.45;20.33;;;6.40;99.90;;;;;;6161338;23;20083;-73
2023/02/12 03:06:02;;;;;;;45.60;20.83;;;6.30;99.90;;;;;;6186091;23;20462;-74
2023/02/12 03:08:37;;;;;;;53.97;21.95;;;6.30;99.90;;;;;;6187594;23;20465;-74
2023/02/12 03:11:12;;;;;;;52.47;21.95;;;6.40;99.90;;;;;;6187146;23;20020;-74
2023/02/12 03:13:49;;;;;;;50.85;21.00;;;6.30;99.90;;;;;;6186950;23;20024;-74
2023/02/12 03:16:21;;;;;;;45.38;21.48;;;6.30;99.90;;;;;;6186209;23;20021;-74
2023/02/12 03:19:10;;;;;;;53.25;21.75;;;6.30;99.90;;;;;;6186070;23;20017;-74
2023/02/12 03:21:54;;;;;;;56.55;22.35;;;6.30;99.90;;;;;;6188039;23;20064;-74
2023/02/12 03:24:38;;;;;;;56.70;24.13;;;6.30;99.90;;;;;;6161431;23;20021;-73
2023/02/12 03:27:05;;;;;;;57.13;22.88;;;6.40;99.90;;;;;;6187891;23;20048;-75
2023/02/12 03:29:32;;;;;;;64.05;23.48;;;6.40;99.90;;;;;;6185718;23;20028;-74
2023/02/12 03:32:09;;;;;;;68.10;26.20;;;6.30;99.90;;;;;;6187799;23;20012;-74
2023/02/12 03:35:04;;;;;;;62.42;25.10;;;6.30;99.90;;;;;;6186055;23;20021;-74
2023/02/12 03:37:39;;;;;;;58.70;24.42;;;6.30;99.90;;;;;;6182270;23;20024;-74
2023/02/12 03:40:23;;;;;;;65.72;25.85;;;6.30;99.90;;;;;;6186174;23;20024;-74
2023/02/12 03:43:00;;;;;;;69.25;25.45;;;6.10;99.90;;;;;;6185852;23;20021;-73
2023/02/12 03:46:08;;;;;;;66.72;25.92;;;6.10;99.90;;;;;;6187760;23;20013;-73
2023/02/12 03:49:01;;;;;;;61.33;24.92;;;6.30;99.90;;;;;;6185737;23;20043;-73
2023/02/12 03:51:43;;;;;;;55.85;23.65;;;6.20;99.90;;;;;;6185792;23;20017;-73
2023/02/12 03:54:11;;;;;;;58.42;24.05;;;6.10;99.90;;;;;;6187344;23;20020;-73
2023/02/12 03:56:48;;;;;;;59.28;24.58;;;6.00;99.90;;;;;;6187481;23;20047;-73
2023/02/12 03:59:14;;;;;;;63.50;24.52;;;6.10;99.90;;;;;;6187548;23;20020;-73
2023/02/12 04:01:41;;;;;;;55.03;23.63;;;6.10;99.90;;;;;;6187586;23;20019;-73
2023/02/12 04:04:08;;;;;;;52.97;24.30;;;6.10;99.90;;;;;;6187558;23;20005;-73
2023/02/12 04:06:34;;;;;;;57.42;22.95;;;6.00;99.90;;;;;;6187217;23;20071;-73
2023/02/12 04:09:11;;;;;;;57.13;24.58;;;6.00;99.90;;;;;;6185654;23;20017;-73
2023/02/12 04:11:53;;;;;;;54.95;23.02;;;6.00;99.90;;;;;;6185601;23;20067;-73
2023/02/12 04:15:04;;;;;;;59.40;24.05;;;6.00;99.90;;;;;;6185640;23;20017;-73
2023/02/12 04:17:57;;;;;;;55.92;21.65;;;5.90;99.90;;;;;;6185723;23;20028;-73
2023/02/12 04:21:09;;;;;;;53.53;21.02;;;5.90;99.90;;;;;;6185471;23;20021;-73
2023/02/12 04:23:53;;;;;;;49.08;20.45;;;5.90;99.90;;;;;;6155013;23;20021;-73
2023/02/12 04:26:37;;;;;;;50.28;21.58;;;5.90;99.90;;;;;;6185300;23;20020;-73
2023/02/12 04:29:24;;;;;;;52.88;22.63;;;5.90;99.90;;;;;;6160209;23;20017;-73
2023/02/12 04:31:57;;;;;;;47.38;21.10;;;6.00;99.90;;;;;;6185255;23;20040;-73
2023/02/12 04:34:35;;;;;;;44.90;20.48;;;6.00;99.90;;;;;;6185251;23;20013;-73
2023/02/12 04:37:07;;;;;;;54.08;23.80;;;5.90;99.90;;;;;;6185964;23;20009;-73
2023/02/12 04:39:36;;;;;;;46.05;20.15;;;6.00;99.90;;;;;;6185122;23;20012;-73
2023/02/12 04:42:02;;;;;;;49.90;20.97;;;6.00;99.90;;;;;;6160326;23;20016;-73
2023/02/12 04:44:31;;;;;;;46.15;21.23;;;5.80;99.90;;;;;;6185410;23;20237;-73
2023/02/12 04:46:57;;;;;;;45.85;20.40;;;5.90;99.90;;;;;;6184959;23;20084;-73
2023/02/12 04:49:24;;;;;;;53.08;23.00;;;5.90;99.90;;;;;;6185302;23;20017;-73
2023/02/12 04:51:50;;;;;;;53.10;22.17;;;6.00;99.90;;;;;;6160115;23;20009;-73
2023/02/12 04:54:18;;;;;;;51.13;22.33;;;5.80;99.90;;;;;;6184803;23;20020;-73
2023/02/12 04:56:44;;;;;;;47.25;21.48;;;5.80;99.90;;;;;;6184928;23;20020;-73
2023/02/12 04:59:10;;;;;;;50.30;21.65;;;5.90;99.90;;;;;;6184961;23;20016;-73
2023/02/12 05:01:37;;;;;;;52.17;21.50;;;6.00;99.90;;;;;;6185281;23;20016;-73
2023/02/12 05:04:03;;;;;;;47.70;20.63;;;6.00;99.90;;;;;;6185003;23;20036;-73
2023/02/12 05:06:30;;;;;;;51.92;20.67;;;5.80;99.90;;;;;;6186465;23;20024;-73
2023/02/12 05:08:56;;;;;;;49.55;20.75;;;6.00;99.90;;;;;;6160059;23;20091;-73
2023/02/12 05:11:22;;;;;;;48.60;21.02;;;5.80;99.90;;;;;;6186768;23;20056;-73
2023/02/12 05:13:49;;;;;;;47.83;19.77;;;5.90;99.90;;;;;;6186640;23;20009;-73
2023/02/12 05:16:16;;;;;;;52.70;21.67;;;5.80;99.90;;;;;;6186775;23;20373;-73
2023/02/12 05:18:42;;;;;;;54.28;22.38;;;6.00;99.90;;;;;;6160036;23;20024;-73
2023/02/12 05:21:08;;;;;;;58.25;22.52;;;5.90;99.90;;;;;;6184788;23;20013;-73
2023/02/12 05:23:36;;;;;;;55.83;22.48;;;5.80;99.90;;;;;;6184880;23;20009;-73
2023/02/12 05:26:05;;;;;;;51.10;21.83;;;5.90;99.90;;;;;;6187154;23;20005;-73
2023/02/12 05:28:31;;;;;;;52.50;21.02;;;5.90;99.90;;;;;;6184552;23;20013;-73
2023/02/12 05:31:02;;;;;;;48.63;20.42;;;5.90;99.90;;;;;;6184878;23;20021;-73
2023/02/12 05:33:28;;;;;;;47.97;21.73;;;5.80;99.90;;;;;;6185110;23;20083;-73
2023/02/12 05:35:54;;;;;;;51.40;21.00;;;5.70;99.90;;;;;;6186250;23;20442;-73
2023/02/12 05:38:21;;;;;;;51.55;20.67;;;5.90;99.90;;;;;;6186771;23;20017;-73
2023/02/12 05:40:46;;;;;;;47.97;20.73;;;5.80;99.90;;;;;;6186481;23;20056;-74
2023/02/12 05:43:12;;;;;;;49.00;20.77;;;5.90;99.90;;;;;;6184591;23;20013;-74
2023/02/12 05:45:40;;;;;;;45.08;20.80;;;5.80;99.90;;;;;;6186446;23;20442;-73
2023/02/12 05:48:06;;;;;;;43.13;19.98;;;5.70;99.90;;;;;;6159645;23;20013;-74
2023/02/12 05:50:32;;;;;;;45.05;20.88;;;5.90;99.90;;;;;;6186488;23;20028;-74
2023/02/12 05:53:01;;;;;;;51.45;22.77;;;5.90;99.90;;;;;;6185119;23;20009;-73
2023/02/12 05:55:27;;;;;;;45.20;21.40;;;5.90;99.90;;;;;;6184783;23;20013;-73
2023/02/12 05:57:53;;;;;;;42.05;20.10;;;5.80;99.90;;;;;;6159878;23;20120;-73
2023/02/12 06:00:19;;;;;;;42.90;19.75;;;5.80;99.90;;;;;;6184567;23;20013;-73
2023/02/12 06:02:44;;;;;;;43.72;21.42;;;5.80;99.90;;;;;;6184619;23;20020;-73
2023/02/12 06:05:10;;;;;;;50.20;21.65;;;5.80;99.90;;;;;;6184594;23;20009;-73
2023/02/12 06:07:36;;;;;;;50.63;21.40;;;5.70;99.90;;;;;;6185486;23;20465;-73
2023/02/12 06:10:01;;;;;;;43.13;19.75;;;5.90;99.90;;;;;;6187092;23;20447;-73
2023/02/12 06:12:27;;;;;;;43.40;20.27;;;5.90;99.90;;;;;;6187013;23;20072;-73
2023/02/12 06:14:52;;;;;;;46.65;20.75;;;5.80;99.90;;;;;;6187072;23;20013;-73
2023/02/12 06:17:18;;;;;;;49.72;20.38;;;5.80;99.90;;;;;;6161841;23;20040;-73
2023/02/12 06:19:44;;;;;;;45.20;21.02;;;5.80;99.90;;;;;;6186949;23;20024;-73
2023/02/12 06:22:09;;;;;;;47.22;20.77;;;5.90;99.90;;;;;;6161738;23;20009;-73
2023/02/12 06:24:36;;;;;;;50.28;20.75;;;5.70;99.90;;;;;;6186491;23;20017;-73
2023/02/12 06:27:01;;;;;;;46.78;21.52;;;5.80;99.90;;;;;;6186456;23;20092;-74
2023/02/12 06:29:27;;;;;;;51.13;20.80;;;5.80;99.90;;;;;;6161263;23;20379;-73
2023/02/12 06:31:53;;;;;;;46.95;19.48;;;5.60;99.90;;;;;;6188258;23;20024;-73
2023/02/12 06:34:18;;;;;;;48.58;20.10;;;5.70;99.90;;;;;;6186306;23;20342;-74
2023/02/12 06:36:45;;;;;;;47.03;19.40;;;5.80;99.90;;;;;;6161565;23;20021;-73
2023/02/12 06:39:12;;;;;;;55.13;20.48;;;5.80;99.90;;;;;;6186332;23;20455;-73
2023/02/12 06:41:38;;;;;;;52.35;20.33;;;5.70;99.90;;;;;;6187706;23;20529;-73
2023/02/12 06:44:04;;;;;;;58.55;20.73;;;5.70;99.90;;;;;;6186365;23;20045;-73
2023/02/12 06:46:30;;;;;;;61.45;21.08;;;5.70;99.90;;;;;;6187677;23;20461;-74
2023/02/12 06:48:58;;;;;;;65.72;22.67;;;5.90;99.90;;;;;;6188016;23;20017;-73
2023/02/12 06:51:25;;;;;;;59.85;21.00;;;5.70;99.90;;;;;;6188068;23;20355;-73
2023/02/12 06:53:52;;;;;;;63.72;21.05;;;5.80;99.90;;;;;;6188176;23;20009;-73
2023/02/12 06:56:19;;;;;;;63.17;21.58;;;5.70;99.90;;;;;;6161323;23;20576;-73
2023/02/12 06:58:46;;;;;;;67.95;22.38;;;5.60;99.90;;;;;;6186160;23;20064;-73
2023/02/12 07:01:16;;;;;;;64.47;21.02;;;5.80;99.90;;;;;;6161297;23;20378;-73
2023/02/12 07:03:46;;;;;;;62.08;22.48;;;5.60;99.90;;;;;;6161270;23;20020;-73
2023/02/12 07:06:12;;;;;;;54.05;21.17;;;5.60;99.90;;;;;;6186125;23;20013;-73
2023/02/12 07:08:38;;;;;;;59.50;21.70;;;5.60;99.90;;;;;;6188051;23;20063;-73
2023/02/12 07:11:04;;;;;;;63.03;22.67;;;5.70;99.90;;;;;;6186471;23;20322;-73
2023/02/12 07:13:30;;;;;;;61.05;22.50;;;5.60;99.90;;;;;;6187995;23;20016;-73
2023/02/12 07:15:55;;;;;;;59.97;21.67;;;5.70;99.90;;;;;;6186368;23;20009;-73
2023/02/12 07:18:21;;;;;;;71.95;25.00;;;5.70;99.90;;;;;;6186203;23;20009;-73
2023/02/12 07:20:46;;;;;;;67.15;23.48;;;5.50;99.90;;;;;;6185913;23;20450;-73
2023/02/12 07:23:13;;;;;;;62.50;25.63;;;5.70;99.90;;;;;;6187776;23;20013;-73
2023/02/12 07:25:38;;;;;;;59.70;23.33;;;5.50;99.90;;;;;;6186226;23;20080;-73
2023/02/12 07:28:04;;;;;;;63.33;23.98;;;5.60;99.90;;;;;;6185501;23;20099;-73
2023/02/12 07:30:29;;;;;;;68.03;26.30;;;5.60;99.90;;;;;;6185962;23;20049;-73
2023/02/12 07:32:55;;;;;;;63.00;23.70;;;5.70;99.90;;;;;;6187728;23;20092;-73
2023/02/12 07:35:21;;;;;;;61.78;22.60;;;5.70;99.90;;;;;;6186024;23;20012;-73
2023/02/12 07:37:46;;;;;;;57.00;24.40;;;5.60;99.90;;;;;;6161297;23;20468;-73
2023/02/12 07:40:12;;;;;;;59.83;23.60;;;5.80;99.90;;;;;;6186124;23;20386;-74
2023/02/12 07:42:38;;;;;;;65.90;24.75;;;5.70;99.90;;;;;;6185897;23;20047;-73
2023/02/12 07:45:05;;;;;;;66.15;24.73;;;5.60;99.90;;;;;;6185896;23;20009;-73
2023/02/12 07:47:30;;;;;;;62.25;25.77;;;5.70;99.90;;;;;;6187343;23;20537;-74
2023/02/12 07:49:56;;;;;;;61.08;24.75;;;5.70;99.90;;;;;;6187679;23;20048;-73
2023/02/12 07:52:22;;;;;;;63.38;24.95;;;5.80;99.90;;;;;;6185664;23;20010;-74
2023/02/12 07:54:48;;;;;;;69.63;25.58;;;5.90;99.90;;;;;;6187713;23;20021;-74
2023/02/12 07:57:13;;;;;;;57.30;23.23;;;5.80;99.90;;;;;;6187448;23;20005;-73
2023/02/12 07:59:39;;;;;;;65.68;24.02;;;5.80;99.90;;;;;;6187500;23;20009;-74
2023/02/12 08:02:05;;;;;;;60.60;24.65;;;5.80;99.90;;;;;;6187452;23;20094;-73
2023/02/12 08:04:31;;;;;;;65.90;24.55;;;6.00;99.90;;;;;;6185986;23;20013;-74
2023/02/12 08:06:56;;;;;;;62.20;24.98;;;6.00;99.90;;;;;;6160654;23;20028;-74
2023/02/12 08:09:24;;;;;;;62.47;23.73;;;5.80;99.90;;;;;;6185498;23;20024;-74
2023/02/12 08:11:50;;;;;;;60.97;24.92;;;6.00;99.90;;;;;;6185971;23;20096;-72
2023/02/12 08:14:18;;;;;;;66.30;25.73;;;6.00;99.90;;;;;;6187947;23;20040;-71
2023/02/12 08:16:46;;;;;;;55.70;23.58;;;6.00;99.90;;;;;;6185551;23;20055;-72
2023/02/12 08:19:12;;;;;;;61.42;24.50;;;6.00;99.90;;;;;;6186967;23;20092;-70
2023/02/12 08:21:38;;;;;;;63.70;24.60;;;5.90;99.90;;;;;;6185480;23;20044;-73
2023/02/12 08:24:03;;;;;;;60.17;24.80;;;5.90;99.90;;;;;;6185479;23;20028;-73
2023/02/12 08:26:31;;;;;;;61.00;25.67;;;6.10;99.90;;;;;;6187218;23;20013;-73
2023/02/12 08:29:03;;;;;;;57.95;23.67;;;6.10;99.90;;;;;;6159501;23;20021;-75
2023/02/12 08:31:31;;;;;;;63.15;25.23;;;6.20;99.90;;;;;;6159088;23;20047;-76
2023/02/12 08:33:58;;;;;;;60.28;23.70;;;6.10;99.90;;;;;;6183985;23;20013;-75
2023/02/12 08:36:26;;;;;;;56.53;23.45;;;6.10;99.90;;;;;;6183950;23;20092;-73
2023/02/12 08:38:53;;;;;;;66.70;25.27;;;6.00;99.90;;;;;;6185931;23;20013;-72
2023/02/12 08:41:22;;;;;;;65.03;25.23;;;6.10;99.90;;;;;;6185747;23;20316;-74
2023/02/12 08:43:49;;;;;;;59.15;24.25;;;6.10;99.90;;;;;;6183906;23;20013;-74
2023/02/12 08:46:24;;;;;;;53.53;24.05;;;6.10;99.90;;;;;;6185698;23;20017;-75
2023/02/12 08:48:53;;;;;;;66.82;26.65;;;6.30;99.90;;;;;;6183773;23;20089;-74
2023/02/12 08:51:22;;;;;;;62.67;24.85;;;6.30;99.90;;;;;;6183862;23;20512;-74
2023/02/12 08:53:52;;;;;;;60.83;24.57;;;6.10;99.90;;;;;;6159178;23;20009;-74
2023/02/12 08:56:18;;;;;;;58.13;24.23;;;6.30;99.90;;;;;;6184274;23;20013;-75
2023/02/12 08:58:45;;;;;;;54.65;22.85;;;6.40;99.90;;;;;;6185685;23;20016;-75
2023/02/12 09:01:14;;;;;;;55.33;22.67;;;6.20;99.90;;;;;;6184303;23;20017;-73
2023/02/12 09:03:40;;;;;;;55.10;23.50;;;6.30;99.90;;;;;;6183902;23;20464;-72
2023/02/12 09:06:07;;;;;;;51.08;22.42;;;6.40;99.90;;;;;;6185625;23;20044;-75
2023/02/12 09:08:34;;;;;;;58.47;23.70;;;6.40;99.90;;;;;;6183786;23;20024;-74
2023/02/12 09:11:05;;;;;;;56.63;25.45;;;6.40;99.90;;;;;;6183824;23;20013;-74
2023/02/12 09:13:30;;;;;;;57.47;24.05;;;6.40;99.90;;;;;;6183909;23;20136;-75
2023/02/12 09:15:59;;;;;;;54.60;24.02;;;6.50;99.90;;;;;;6183774;23;20442;-75
2023/02/12 09:18:24;;;;;;;53.55;23.20;;;6.60;99.90;;;;;;6158964;23;20485;-75
2023/02/12 09:20:50;;;;;;;53.22;22.85;;;6.70;99.90;;;;;;6185635;23;20041;-75
2023/02/12 09:23:15;;;;;;;53.58;24.70;;;6.70;99.90;;;;;;6185468;23;20039;-74
2023/02/12 09:25:43;;;;;;;53.25;23.75;;;6.60;99.90;;;;;;6185716;23;20013;-75
2023/02/12 09:28:11;;;;;;;50.70;24.20;;;6.70;99.90;;;;;;6137759;23;1079296;-72
2023/02/12 09:30:37;;;;;;;58.25;24.77;;;6.60;99.90;;;;;;6187250;23;20019;-71
2023/02/12 09:33:04;;;;;;;55.25;25.50;;;6.90;99.90;;;;;;6184640;23;20023;-71
2023/02/12 09:35:30;;;;;;;55.92;24.80;;;6.70;99.90;;;;;;6184806;23;20395;-72
2023/02/12 09:37:55;;;;;;;55.90;25.30;;;7.00;99.90;;;;;;6184622;23;20028;-71
2023/02/12 09:40:32;;;;;;;53.75;24.38;;;6.90;99.90;;;;;;6186590;23;20013;-71
2023/02/12 09:43:10;;;;;;;53.42;25.35;;;7.00;99.90;;;;;;6184753;23;20084;-72
2023/02/12 09:45:42;;;;;;;50.00;24.33;;;7.00;99.90;;;;;;6184734;23;20023;-75
2023/02/12 09:48:17;;;;;;;50.58;24.02;;;7.00;99.90;;;;;;6184522;23;20036;-76
2023/02/12 09:50:55;;;;;;;54.25;26.55;;;7.20;99.90;;;;;;6186643;23;20334;-82
2023/02/12 09:53:26;;;;;;;53.70;25.13;;;7.20;99.90;;;;;;6185110;23;20047;-74
2023/02/12 09:55:53;;;;;;;55.30;26.50;;;7.20;99.90;;;;;;6184670;23;20067;-72
2023/02/12 09:58:42;;;;;;;48.75;24.08;;;7.20;99.90;;;;;;6185067;23;20017;-70
2023/02/12 10:01:17;;;;;;;57.67;25.10;;;7.30;99.90;;;;;;6187095;23;20017;-73
2023/02/12 10:03:44;;;;;;;48.08;24.55;;;7.30;99.90;;;;;;6184990;23;20017;-74
2023/02/12 10:06:18;;;;;;;50.03;22.85;;;7.40;99.90;;;;;;6184611;23;20017;-74
2023/02/12 10:08:53;;;;;;;52.20;24.30;;;7.30;99.90;;;;;;6186461;23;20052;-74
2023/02/12 10:11:47;;;;;;;51.53;22.88;;;7.30;99.90;;;;;;6187167;23;20048;-74
2023/02/12 10:14:40;;;;;;;44.88;21.27;;;7.30;99.90;;;;;;6184627;23;20017;-74
2023/02/12 10:17:44;;;;;;;42.88;22.13;;;7.40;99.90;;;;;;6186536;23;20009;-74
2023/02/12 10:20:51;;;;;;;42.50;22.00;;;7.50;99.90;;;;;;6186474;23;20021;-75
2023/02/12 10:23:19;;;;;;;40.45;20.17;;;7.60;99.90;;;;;;6184852;23;20013;-75
2023/02/12 10:25:57;;;;;;;43.55;20.65;;;7.60;99.90;;;;;;6186036;23;20085;-75
2023/02/12 10:28:27;;;;;;;38.85;19.65;;;7.60;99.90;;;;;;6186567;23;20024;-75
2023/02/12 10:30:57;;;;;;;35.80;19.55;;;7.70;99.90;;;;;;6184593;23;20369;-75
2023/02/12 10:33:31;;;;;;;34.08;19.52;;;7.80;99.90;;;;;;6184554;23;20023;-74
2023/02/12 10:36:38;;;;;;;37.47;19.58;;;7.70;99.90;;;;;;6159645;23;20021;-74
2023/02/12 10:39:11;;;;;;;35.03;19.60;;;8.00;99.90;;;;;;6183436;23;20494;-74
2023/02/12 10:41:43;;;;;;;34.22;18.75;;;8.10;99.90;;;;;;6186238;23;20013;-74
2023/02/12 10:44:10;;;;;;;34.65;18.02;;;8.10;99.90;;;;;;6186387;23;20013;-75
2023/02/12 10:46:36;;;;;;;32.67;17.52;;;8.20;99.90;;;;;;6184875;23;20012;-74
2023/02/12 10:49:04;;;;;;;32.90;18.17;;;8.10;99.90;;;;;;6184410;23;20023;-74
2023/02/12 10:51:40;;;;;;;30.42;17.52;;;8.30;99.90;;;;;;6186376;23;20013;-75
2023/02/12 10:54:31;;;;;;;29.35;17.35;;;8.40;99.90;;;;;;6187968;23;20009;-74
2023/02/12 10:56:58;;;;;;;29.98;16.02;;;8.40;99.90;;;;;;6187820;23;20024;-74
2023/02/12 10:59:24;;;;;;;31.75;17.48;;;8.40;99.90;;;;;;6186251;23;20028;-74
2023/02/12 11:01:50;;;;;;;29.92;16.52;;;8.50;99.90;;;;;;6186355;23;20021;-74
2023/02/12 11:04:24;;;;;;;28.52;17.00;;;8.50;99.90;;;;;;6187770;23;20023;-75
2023/02/12 11:07:07;;;;;;;28.80;16.17;;;8.70;99.90;;;;;;6186759;23;20068;-75
2023/02/12 11:09:44;;;;;;;27.77;15.68;;;8.70;99.90;;;;;;6188163;23;20390;-74
2023/02/12 11:12:35;;;;;;;28.88;15.30;;;8.90;99.90;;;;;;6186298;23;20063;-75
2023/02/12 11:15:23;;;;;;;24.80;13.18;;;9.10;99.90;;;;;;6186540;23;20073;-75
2023/02/12 11:18:03;;;;;;;22.73;12.95;;;9.20;99.90;;;;;;6186204;23;20020;-75
2023/02/12 11:20:38;;;;;;;19.40;11.98;;;9.20;99.90;;;;;;6186595;23;20037;-74
2023/02/12 11:23:06;;;;;;;18.42;11.55;;;9.20;99.90;;;;;;6186161;23;20020;-74
2023/02/12 11:25:35;;;;;;;16.67;10.00;;;9.20;99.90;;;;;;6187933;23;20041;-74
2023/02/12 11:28:14;;;;;;;24.27;10.63;;;9.20;99.90;;;;;;6160716;23;20095;-75
2023/02/12 11:31:00;;;;;;;18.23;10.77;;;9.30;99.90;;;;;;6161158;23;20051;-75
2023/02/12 11:33:44;;;;;;;11.43;5.95;;;9.30;99.90;;;;;;6185896;23;20713;-75
2023/02/12 11:36:24;;;;;;;10.20;5.90;;;9.20;99.90;;;;;;6186911;23;20009;-75
2023/02/12 11:38:57;;;;;;;;;;;9.20;99.90;;;;;;6186846;23;20063;-75
2023/02/12 11:41:22;;;;;;;14.43;6.65;;;9.30;99.90;;;;;;6185904;23;19939;-75
2023/02/12 11:43:48;;;;;;;12.00;6.95;;;9.40;99.90;;;;;;6161311;23;20013;-75
2023/02/12 11:46:23;;;;;;;11.65;7.50;;;9.40;99.90;;;;;;6187117;23;20009;-75
2023/02/12 11:48:54;;;;;;;16.88;9.32;;;9.40;99.90;;;;;;6186058;23;20005;-75
2023/02/12 11:51:28;;;;;;;14.50;9.00;;;9.40;99.90;;;;;;6185653;23;20020;-75
2023/02/12 11:54:00;;;;;;;14.43;9.07;;;9.40;99.90;;;;;;6188288;23;20315;-75
2023/02/12 11:56:41;;;;;;;15.23;9.05;;;9.50;99.90;;;;;;6185781;23;20096;-75
2023/02/12 11:59:39;;;;;;;15.07;8.52;;;9.40;99.90;;;;;;6161735;23;20036;-75
2023/02/12 12:02:22;;;;;;;15.75;8.82;;;9.50;99.90;;;;;;6186654;23;20378;-75
2023/02/12 12:04:50;;;;;;;13.93;9.05;;;9.60;99.90;;;;;;6184966;23;20017;-75
2023/02/12 12:07:23;;;;;;;14.45;8.70;;;9.50;99.90;;;;;;6160588;23;20028;-75
2023/02/12 12:09:58;;;;;;;15.23;9.35;;;9.60;99.90;;;;;;6185547;23;20009;-75
2023/02/12 12:12:55;;;;;;;14.57;9.30;;;9.70;99.90;;;;;;6160640;23;20535;-75
2023/02/12 12:22:26;;;;;;;15.95;8.40;;;10.10;99.90;;;;;;6185487;23;20017;-75
2023/02/12 12:25:17;;;;;;;11.98;7.70;;;10.10;99.90;;;;;;6125294;23;20025;-75
2023/02/12 12:30:47;;;;;;;11.50;6.82;;;10.10;99.90;;;;;;6100416;23;20073;-75
2023/02/12 12:33:46;;;;;;;12.20;7.85;;;10.00;99.90;;;;;;6100910;23;20014;-75
2023/02/12 12:36:12;;;;;;;11.75;7.07;;;10.00;99.90;;;;;;6014750;23;20140;-75
2023/02/12 12:38:54;;;;;;;12.50;7.78;;;9.80;99.90;;;;;;6038382;23;20047;-75
2023/02/12 12:41:58;;;;;;;11.57;7.35;;;9.80;99.90;;;;;;6038477;23;20086;-75
2023/02/12 12:44:30;;;;;;;10.02;5.68;;;9.70;99.90;;;;;;6038269;23;20011;-75
2023/02/12 12:47:36;;;;;;;11.52;6.78;;;9.70;99.90;;;;;;6038434;23;20031;-75
2023/02/12 12:50:23;;;;;;;10.57;6.72;;;9.70;99.90;;;;;;6014424;23;20050;-76
2023/02/12 12:53:06;;;;;;;12.38;7.60;;;9.70;99.90;;;;;;6038354;23;20035;-75
2023/02/12 12:55:40;;;;;;;14.93;8.65;;;9.80;99.90;;;;;;6038361;23;20023;-74
2023/02/12 12:58:33;;;;;;;16.83;10.68;;;9.90;99.90;;;;;;6048250;23;20014;-74
2023/02/12 13:01:22;;;;;;;14.98;8.93;;;10.00;99.90;;;;;;5986304;23;20473;-74
2023/02/12 13:04:25;;;;;;;15.43;9.13;;;10.00;99.90;;;;;;5986373;23;20494;-75
2023/02/12 13:07:18;;;;;;;15.68;10.13;;;10.10;99.90;;;;;;6009748;23;20379;-75
2023/02/12 13:09:55;;;;;;;17.23;10.60;;;10.00;99.90;;;;;;6009885;23;20024;-74
2023/02/12 13:12:39;;;;;;;17.38;12.32;;;10.00;99.90;;;;;;6048525;23;20065;-74
2023/02/12 13:15:31;;;;;;;18.00;11.00;;;10.00;99.90;;;;;;6071435;23;20527;-74